Park Valley, Utah
Current Conditions -  °F | °C
As of 1:08 PM on Sunday 21 Dec 2014 (Local Time) from KBYI Reporting Station
Light Rain Light Rain  
Wind Chill: 41°   Ceiling: 2900
Heat Index: 49°   Visibility: 10mi
Dew Point: 42°   Wind: 28mph
Humidity: 77%   Direction: 260°W
Pressure: 29.83"   Gusts: 44mph
Location:  41.82°N, 113.33°W
Report Text: KBYI 212008Z AUTO 26024G38KT 10SM -RA BKN029 OVC035 09/06 A2983 RMK AO2 PK WND 26038/2002 P0000 T00940056
Loading
Personal Weather Stations






























Interactive Weather Map New forecast layout! Learn more

10-Day Weather Forecast

Advertisements
Track Severe Weather on mobile